Flight Track Log - Related Links

Times and Time Zones

All times are in EDT time to prevent confusion due to time zone crossing. See the SWA718 flight status page for this flight to view local times or setup timezone preferences in your user account.

Time Position Orientation Groundspeed Altitude Reporting Facility
EDT Latitude Longitude Course Direction KTS MPH feet Rate Location/Type
Fri 04:13:04 PM 27.7794 -97.5158 333° Northwest 156 180 700  Level Houston Center
Fri 04:14:30 PM 27.8422 -97.5522 333° Northwest 191 220 4,400 2,548 Climbing Houston Center
Fri 04:15:30 PM 27.8892 -97.5578 354° North 200 230 6,900 2,242 Climbing Houston Center
Fri 04:16:09 PM 27.9142 -97.5228 51° Northeast 222 255 8,100 2,079 Climbing Houston Center
Fri 04:17:11 PM 27.9775 -97.4706 36° Northeast 277 319 10,400 2,832 Climbing Houston Center
Fri 04:18:14 PM 28.0583 -97.4094 34° Northeast 332 382 14,000 3,408 Climbing Houston Center
Fri 04:19:16 PM 28.1592 -97.3278 36° Northeast 369 425 17,500 2,952 Climbing Houston Center
Fri 04:20:18 PM 28.2358 -97.2283 49° Northeast 408 470 20,100 2,419 Climbing Houston Center
Fri 04:21:20 PM 28.3250 -97.1344 43° Northeast 435 501 22,500 2,274 Climbing Houston Center
Fri 04:22:22 PM 28.4169 -97.0317 45° Northeast 460 529 24,800 2,081 Climbing Houston Center
Fri 04:23:24 PM 28.5144 -96.9261 44° Northeast 478 550 26,800 1,016 Climbing Houston Center
Fri 04:24:26 PM 28.6372 -96.7861 45° Northeast 513 590 26,900 -919 Climbing Houston Center
Fri 04:25:28 PM 28.7372 -96.6739 45° Northeast 513 590 24,900 -2,016 Descending Houston Center
Fri 04:26:31 PM 28.8336 -96.5661 44° Northeast 496 571 22,700 -2,112 Descending Houston Center
Fri 04:27:33 PM 28.9267 -96.4622 44° Northeast 479 551 20,500 -2,081 Descending Houston Center
Fri 04:28:35 PM 29.0150 -96.3619 45° Northeast 460 529 18,400 -2,226 Descending Houston Center
Fri 04:29:37 PM 29.1150 -96.2489 45° Northeast 432 497 15,900 -2,202 Descending Houston Center
Fri 04:30:24 PM 29.1756 -96.1817 44° Northeast 412 474 14,400 -2,032 Descending Houston Center
Fri 04:30:39 PM 29.1944 -96.1611 44° Northeast 407 468 13,800 -1,714 Descending Houston Center
Fri 04:31:41 PM 29.2697 -96.0756 45° Northeast 388 447 12,200 -871 Descending Houston Center
Fri 04:32:43 PM 29.3217 -95.9706 60° Northeast 366 421 12,000 -532 Descending Houston Center
Fri 04:33:45 PM 29.3544 -95.8611 71° East 365 420 11,100 -1,016 Descending Houston Center
Fri 04:34:47 PM 29.3847 -95.7542 72° East 356 410 9,900 -1,200 Descending Houston Center
Fri 04:35:55 PM 29.4214 -95.6364 70° East 304 350 8,500 -1,200 Descending Houston Center
Fri 04:36:52 PM 29.4383 -95.5728 73° East 296 341 7,400 -1,707 Descending Houston Center
Fri 04:37:58 PM 29.4875 -95.4869 57° Northeast 230 265 5,000 -1,694 Descending Houston Center
Fri 04:38:56 PM 29.5222 -95.4367 52° Northeast 231 266 3,900 -1,000 Descending Houston Center
Fri 04:39:58 PM 29.5594 -95.3831 51° Northeast 222 255 3,000 -1,238 Descending Houston Center
Fri 04:41:02 PM 29.5975 -95.3322 49° Northeast 173 199 1,300 -1,210 Descending Houston Center
Fri 04:42:02 PM 29.6222 -95.3039 45° Northeast 172 198 500 -590 Descending Houston Center
Fri 04:43:04 PM 29.6544 -95.2719 41° Northeast 153 176 100 -387 Descending Houston Center

Login

Don't have an account? Register now (free) for customized features, flight alerts, and more!